Time;durP1;ratioP1;P1;durP2;ratioP2;P2;SDS_P1;SDS_P2;PMS_P1;PMS_P2;Temp;Humidity;BMP_temperature;BMP_pressure;BME280_temperature;BME280_humidity;BME280_pressure;Samples;Min_cycle;Max_cycle;Signal;HPM_P1;HPM_P2
2022/02/12 00:00:56;;;;;;;2.55;0.55;;;;;;;;;;5025779;28;20056;-70
2022/02/12 00:03:25;;;;;;;0.98;0.50;;;;;;;;;;5025746;28;20026;-71
2022/02/12 00:05:51;;;;;;;2.53;0.40;;;;;;;;;;5043629;28;20053;-70
2022/02/12 00:08:16;;;;;;;0.57;0.40;;;;;;;;;;5043465;28;20040;-70
2022/02/12 00:10:42;;;;;;;1.58;0.70;;;;;;;;;;5058789;28;20033;-71
2022/02/12 00:13:12;;;;;;;1.20;0.60;;;;;;;;;;5043537;28;20061;-71
2022/02/12 00:15:43;;;;;;;1.40;0.60;;;;;;;;;;5043534;28;20036;-70
2022/02/12 00:18:09;;;;;;;0.70;0.30;;;;;;;;;;5043700;28;20029;-71
2022/02/12 00:20:36;;;;;;;0.65;0.40;;;;;;;;;;5043486;28;20048;-71
2022/02/12 00:23:05;;;;;;;3.60;0.63;;;;;;;;;;5043143;28;20041;-70
2022/02/12 00:25:30;;;;;;;0.63;0.40;;;;;;;;;;5043443;28;20041;-70
2022/02/12 00:27:56;;;;;;;1.17;0.45;;;;;;;;;;5043526;28;20083;-71
2022/02/12 00:30:25;;;;;;;0.40;0.22;;;;;;;;;;5043302;28;20431;-70
2022/02/12 00:32:50;;;;;;;3.05;0.70;;;;;;;;;;5043743;28;20033;-70
2022/02/12 00:35:18;;;;;;;1.33;0.30;;;;;;;;;;5043451;28;20033;-71
2022/02/12 00:37:43;;;;;;;1.70;0.77;;;;;;;;;;5043176;28;20140;-70
2022/02/12 00:40:09;;;;;;;1.63;0.63;;;;;;;;;;5042936;28;20468;-71
2022/02/12 00:42:40;;;;;;;3.03;0.65;;;;;;;;;;5043218;28;20035;-71
2022/02/12 00:45:06;;;;;;;2.85;0.60;;;;;;;;;;5043667;28;20129;-71
2022/02/12 00:47:34;;;;;;;0.93;0.50;;;;;;;;;;5043588;28;20053;-71
2022/02/12 00:50:00;;;;;;;0.95;0.40;;;;;;;;;;5043141;28;20021;-71
2022/02/12 00:52:31;;;;;;;0.45;0.30;;;;;;;;;;5043605;28;20044;-70
2022/02/12 00:54:59;;;;;;;6.90;0.68;;;;;;;;;;5043460;28;20033;-69
2022/02/12 00:57:27;;;;;;;2.80;0.65;;;;;;;;;;5024987;28;20569;-71
2022/02/12 00:59:52;;;;;;;1.02;0.60;;;;;;;;;;5042228;28;20053;-70
2022/02/12 01:02:18;;;;;;;3.50;0.77;;;;;;;;;;5042917;28;20052;-70
2022/02/12 01:04:43;;;;;;;4.90;0.75;;;;;;;;;;5042715;28;20386;-71
2022/02/12 01:07:09;;;;;;;2.53;0.50;;;;;;;;;;5043131;28;20051;-71
2022/02/12 01:09:37;;;;;;;0.95;0.40;;;;;;;;;;5045725;28;20033;-71
2022/02/12 01:12:04;;;;;;;0.95;0.40;;;;;;;;;;5029098;28;20040;-71
2022/02/12 01:14:31;;;;;;;1.83;0.50;;;;;;;;;;5046805;28;20035;-71
2022/02/12 01:16:57;;;;;;;1.40;0.68;;;;;;;;;;5062098;28;20095;-70
2022/02/12 01:19:22;;;;;;;1.27;0.40;;;;;;;;;;5046614;28;20128;-70
2022/02/12 01:21:48;;;;;;;2.58;0.65;;;;;;;;;;5028856;28;20033;-71
2022/02/12 01:24:13;;;;;;;4.13;0.68;;;;;;;;;;5046322;28;20030;-70
2022/02/12 01:26:41;;;;;;;6.15;0.68;;;;;;;;;;5028885;28;20035;-71
2022/02/12 01:29:07;;;;;;;3.42;0.63;;;;;;;;;;5046549;28;20037;-71
2022/02/12 01:31:33;;;;;;;4.35;0.50;;;;;;;;;;5046554;28;20072;-71
2022/02/12 01:34:04;;;;;;;1.42;0.65;;;;;;;;;;5027768;28;20540;-70
2022/02/12 01:36:33;;;;;;;2.65;0.40;;;;;;;;;;5045511;28;20043;-71
2022/02/12 01:38:58;;;;;;;4.13;0.70;;;;;;;;;;5046067;28;20025;-71
2022/02/12 01:41:24;;;;;;;2.38;0.50;;;;;;;;;;5028532;28;20492;-71
2022/02/12 01:43:54;;;;;;;0.60;0.30;;;;;;;;;;5046002;28;20045;-70
2022/02/12 01:46:20;;;;;;;5.78;0.73;;;;;;;;;;5028428;28;20022;-70
2022/02/12 01:48:45;;;;;;;1.60;0.50;;;;;;;;;;5028523;28;20033;-70
2022/02/12 01:51:12;;;;;;;3.05;0.55;;;;;;;;;;5046426;28;20018;-70
2022/02/12 01:53:40;;;;;;;1.48;0.50;;;;;;;;;;5046375;28;20246;-71
2022/02/12 01:56:09;;;;;;;0.90;0.40;;;;;;;;;;5046093;28;20108;-71
2022/02/12 01:58:39;;;;;;;2.80;0.88;;;;;;;;;;5028251;28;20063;-71
2022/02/12 02:01:05;;;;;;;2.83;0.50;;;;;;;;;;5045774;28;20021;-71
2022/02/12 02:03:31;;;;;;;1.58;0.52;;;;;;;;;;5045766;28;20056;-71
2022/02/12 02:06:00;;;;;;;2.75;0.60;;;;;;;;;;5061250;28;20045;-70
2022/02/12 02:08:26;;;;;;;0.28;0.28;;;;;;;;;;5028049;28;20040;-71
2022/02/12 02:10:53;;;;;;;2.67;0.57;;;;;;;;;;5027163;28;20052;-71
2022/02/12 02:13:28;;;;;;;2.85;0.70;;;;;;;;;;5045899;28;20125;-71
2022/02/12 02:15:58;;;;;;;2.50;0.55;;;;;;;;;;5045755;28;20044;-71
2022/02/12 02:18:26;;;;;;;3.13;0.60;;;;;;;;;;5045776;28;20034;-71
2022/02/12 02:20:51;;;;;;;1.67;0.50;;;;;;;;;;5044841;28;20049;-71
2022/02/12 02:23:18;;;;;;;3.72;0.52;;;;;;;;;;5045641;28;20117;-70
2022/02/12 02:25:43;;;;;;;4.03;0.90;;;;;;;;;;5027670;28;20035;-70
2022/02/12 02:28:09;;;;;;;1.77;0.50;;;;;;;;;;5027597;28;20346;-70
2022/02/12 02:30:35;;;;;;;2.30;0.70;;;;;;;;;;5045067;28;20025;-70
2022/02/12 02:33:02;;;;;;;2.42;0.73;;;;;;;;;;5045351;28;20038;-71
2022/02/12 02:35:31;;;;;;;3.85;0.63;;;;;;;;;;5045375;28;20028;-71
2022/02/12 02:38:06;;;;;;;4.28;0.60;;;;;;;;;;5044964;28;20050;-71
2022/02/12 02:40:31;;;;;;;0.85;0.40;;;;;;;;;;5027123;28;20025;-70
2022/02/12 02:42:57;;;;;;;2.17;0.40;;;;;;;;;;5045211;28;20083;-71
2022/02/12 02:45:24;;;;;;;3.72;0.80;;;;;;;;;;5045384;28;20021;-71
2022/02/12 02:47:50;;;;;;;1.42;0.32;;;;;;;;;;5045423;28;20064;-71
2022/02/12 02:56:05;;;;;;;2.60;0.52;;;;;;;;;;5045146;28;20045;-70
2022/02/12 02:58:39;;;;;;;1.45;0.57;;;;;;;;;;5045211;28;20033;-71
2022/02/12 03:01:11;;;;;;;3.25;0.45;;;;;;;;;;5026754;28;20349;-71
2022/02/12 03:03:39;;;;;;;5.30;0.90;;;;;;;;;;5044777;28;20513;-71
2022/02/12 03:06:06;;;;;;;4.68;0.55;;;;;;;;;;5044520;28;20049;-71
2022/02/12 03:08:32;;;;;;;4.57;0.60;;;;;;;;;;5044174;28;20093;-71
2022/02/12 03:10:58;;;;;;;1.05;0.50;;;;;;;;;;5026379;28;20045;-70
2022/02/12 03:13:24;;;;;;;3.65;0.75;;;;;;;;;;5044481;28;20021;-70
2022/02/12 03:15:49;;;;;;;2.42;0.70;;;;;;;;;;5044343;28;20421;-71
2022/02/12 03:18:15;;;;;;;4.18;0.70;;;;;;;;;;5044831;28;20477;-70
2022/02/12 03:20:41;;;;;;;3.60;0.70;;;;;;;;;;5026537;28;20030;-71
2022/02/12 03:23:07;;;;;;;5.38;1.08;;;;;;;;;;5044147;28;20033;-70
2022/02/12 03:25:33;;;;;;;1.00;0.63;;;;;;;;;;5044330;28;20037;-71
2022/02/12 03:28:02;;;;;;;1.42;0.60;;;;;;;;;;5044525;28;20048;-71
2022/02/12 03:30:30;;;;;;;3.88;0.95;;;;;;;;;;5026205;28;20029;-71
2022/02/12 03:32:59;;;;;;;1.75;0.63;;;;;;;;;;5026313;28;20034;-70
2022/02/12 03:35:27;;;;;;;4.60;1.00;;;;;;;;;;5026384;28;20060;-71
2022/02/12 03:38:12;;;;;;;3.42;1.08;;;;;;;;;;5043884;28;20052;-71
2022/02/12 03:40:40;;;;;;;3.53;0.85;;;;;;;;;;5044194;28;20029;-70
2022/02/12 03:43:06;;;;;;;3.03;0.60;;;;;;;;;;5043981;28;20044;-71
2022/02/12 03:45:35;;;;;;;6.20;0.88;;;;;;;;;;5044096;28;20025;-70
2022/02/12 03:48:04;;;;;;;7.00;1.17;;;;;;;;;;5026047;28;20025;-71
2022/02/12 03:50:33;;;;;;;1.58;0.55;;;;;;;;;;5043875;28;20029;-70
2022/02/12 03:53:06;;;;;;;1.67;0.60;;;;;;;;;;5044038;28;20246;-71
2022/02/12 03:55:36;;;;;;;6.97;0.77;;;;;;;;;;5026041;28;20101;-71
2022/02/12 03:58:09;;;;;;;4.43;1.00;;;;;;;;;;5044034;28;20063;-71
2022/02/12 04:00:38;;;;;;;2.13;0.43;;;;;;;;;;5043904;28;20037;-71
2022/02/12 04:03:07;;;;;;;2.75;0.73;;;;;;;;;;5043291;28;20034;-71
2022/02/12 04:05:34;;;;;;;4.43;0.80;;;;;;;;;;5043444;28;20132;-70
2022/02/12 04:07:59;;;;;;;5.28;0.70;;;;;;;;;;5043475;28;20041;-71
2022/02/12 04:10:26;;;;;;;4.65;0.90;;;;;;;;;;5025356;28;20029;-71
2022/02/12 04:12:54;;;;;;;5.20;0.80;;;;;;;;;;5043728;28;20040;-70
2022/02/12 04:15:21;;;;;;;2.63;0.65;;;;;;;;;;5025639;28;20472;-71
2022/02/12 04:17:49;;;;;;;8.05;0.90;;;;;;;;;;5025018;28;20038;-71
2022/02/12 04:20:17;;;;;;;2.42;0.60;;;;;;;;;;5043479;28;20035;-71
2022/02/12 04:22:43;;;;;;;4.75;0.88;;;;;;;;;;5043230;28;20496;-71
2022/02/12 04:25:11;;;;;;;2.67;1.00;;;;;;;;;;5043097;28;20081;-70
2022/02/12 04:27:37;;;;;;;3.67;0.40;;;;;;;;;;5043377;28;20025;-71
2022/02/12 04:30:04;;;;;;;5.05;0.85;;;;;;;;;;5042505;28;20037;-71
2022/02/12 04:32:30;;;;;;;7.35;0.90;;;;;;;;;;5042955;28;20030;-71
2022/02/12 04:34:55;;;;;;;7.65;0.80;;;;;;;;;;5025480;28;20029;-71
2022/02/12 04:37:24;;;;;;;3.50;0.88;;;;;;;;;;5042638;28;20053;-71
2022/02/12 04:39:52;;;;;;;2.38;0.73;;;;;;;;;;5042992;28;20030;-70
2022/02/12 04:42:18;;;;;;;3.33;0.93;;;;;;;;;;5043003;28;20040;-71
2022/02/12 04:44:46;;;;;;;5.00;1.15;;;;;;;;;;5042575;28;20315;-71
2022/02/12 04:47:12;;;;;;;4.60;0.77;;;;;;;;;;5025428;28;20093;-70
2022/02/12 04:49:38;;;;;;;1.70;0.40;;;;;;;;;;5043402;28;20031;-71
2022/02/12 04:52:05;;;;;;;4.45;0.75;;;;;;;;;;5043087;28;20025;-71
2022/02/12 04:54:33;;;;;;;6.55;1.02;;;;;;;;;;5042989;28;20059;-71
2022/02/12 04:56:59;;;;;;;2.75;0.82;;;;;;;;;;5025419;28;20063;-71
2022/02/12 04:59:25;;;;;;;3.90;0.73;;;;;;;;;;5042595;28;20030;-71
2022/02/12 05:01:54;;;;;;;2.80;0.65;;;;;;;;;;5042448;28;20240;-70
2022/02/12 05:04:20;;;;;;;4.38;0.80;;;;;;;;;;5057654;28;20021;-71
2022/02/12 05:06:46;;;;;;;6.43;1.67;;;;;;;;;;5042530;28;20080;-71
2022/02/12 05:09:15;;;;;;;3.30;1.20;;;;;;;;;;5024857;28;20231;-71
2022/02/12 05:11:41;;;;;;;6.95;0.75;;;;;;;;;;5042979;28;20094;-71
2022/02/12 05:14:08;;;;;;;8.68;1.15;;;;;;;;;;5043409;28;20025;-71
2022/02/12 05:16:34;;;;;;;6.57;0.90;;;;;;;;;;5024714;28;20092;-71
2022/02/12 05:19:00;;;;;;;3.92;0.60;;;;;;;;;;5042678;28;20022;-70
2022/02/12 05:21:25;;;;;;;4.47;0.57;;;;;;;;;;5042724;28;20029;-71
2022/02/12 05:23:51;;;;;;;2.90;0.77;;;;;;;;;;5042776;28;20026;-71
2022/02/12 05:26:19;;;;;;;4.15;1.00;;;;;;;;;;5024549;28;20120;-71
2022/02/12 05:28:45;;;;;;;8.00;0.90;;;;;;;;;;5042500;28;20064;-70
2022/02/12 05:31:10;;;;;;;8.65;1.08;;;;;;;;;;5042176;28;20033;-71
2022/02/12 05:33:37;;;;;;;5.05;1.17;;;;;;;;;;5042553;28;20386;-71
2022/02/12 05:36:12;;;;;;;2.88;0.50;;;;;;;;;;5042370;28;20036;-71
2022/02/12 05:38:39;;;;;;;3.65;0.70;;;;;;;;;;5042639;28;20116;-70
2022/02/12 05:41:11;;;;;;;7.22;0.90;;;;;;;;;;5042439;28;20033;-71
2022/02/12 05:43:40;;;;;;;5.15;1.05;;;;;;;;;;5024402;28;20120;-71
2022/02/12 05:46:06;;;;;;;7.13;0.82;;;;;;;;;;5042377;28;20036;-70
2022/02/12 05:48:33;;;;;;;2.63;0.70;;;;;;;;;;5042203;28;20389;-70
2022/02/12 05:50:58;;;;;;;3.80;0.77;;;;;;;;;;5042196;28;20236;-70
2022/02/12 05:53:24;;;;;;;4.13;0.63;;;;;;;;;;5024240;28;20026;-71
2022/02/12 05:55:52;;;;;;;3.10;0.57;;;;;;;;;;5043771;28;20045;-70
2022/02/12 05:58:18;;;;;;;1.88;1.00;;;;;;;;;;5046029;28;20053;-71
2022/02/12 06:00:44;;;;;;;5.80;0.80;;;;;;;;;;5027892;28;20033;-71
2022/02/12 06:03:10;;;;;;;6.55;1.10;;;;;;;;;;5045924;28;20483;-71
2022/02/12 06:05:36;;;;;;;1.58;0.32;;;;;;;;;;5028045;28;20033;-71
2022/02/12 06:08:04;;;;;;;7.85;1.17;;;;;;;;;;5045791;28;20053;-71
2022/02/12 06:10:36;;;;;;;10.55;1.75;;;;;;;;;;5045267;28;20037;-71
2022/02/12 06:13:02;;;;;;;3.70;0.70;;;;;;;;;;5045547;28;20025;-71
2022/02/12 06:15:29;;;;;;;8.18;1.10;;;;;;;;;;5045157;28;20472;-71
2022/02/12 06:17:56;;;;;;;4.28;0.70;;;;;;;;;;5060601;28;20032;-71
2022/02/12 06:20:22;;;;;;;2.05;0.90;;;;;;;;;;5045256;28;20394;-71
2022/02/12 06:22:47;;;;;;;6.88;1.00;;;;;;;;;;5044916;28;20037;-71
2022/02/12 06:25:13;;;;;;;7.80;1.00;;;;;;;;;;5027710;28;20034;-71
2022/02/12 06:27:38;;;;;;;6.90;1.27;;;;;;;;;;5045382;28;20033;-71
2022/02/12 06:30:07;;;;;;;9.07;0.98;;;;;;;;;;5027091;28;20060;-71
2022/02/12 06:32:33;;;;;;;7.90;0.90;;;;;;;;;;5027429;28;20032;-71
2022/02/12 06:35:00;;;;;;;3.80;0.75;;;;;;;;;;5027107;28;20326;-71
2022/02/12 06:37:28;;;;;;;3.58;0.75;;;;;;;;;;5044188;28;20045;-71
2022/02/12 06:39:54;;;;;;;5.75;1.10;;;;;;;;;;5045193;28;20042;-71
2022/02/12 06:42:19;;;;;;;8.75;1.17;;;;;;;;;;5045053;28;20085;-71
2022/02/12 06:44:48;;;;;;;6.00;0.80;;;;;;;;;;5044948;28;20032;-71
2022/02/12 06:47:13;;;;;;;8.65;1.00;;;;;;;;;;5044779;28;20064;-71
2022/02/12 06:49:39;;;;;;;5.32;0.80;;;;;;;;;;5044830;28;20371;-71
2022/02/12 06:52:05;;;;;;;5.03;0.90;;;;;;;;;;5045022;28;20029;-71
2022/02/12 06:54:31;;;;;;;9.25;1.30;;;;;;;;;;5045100;28;20155;-71
2022/02/12 06:56:57;;;;;;;3.42;0.82;;;;;;;;;;5044712;28;20033;-71
2022/02/12 06:59:23;;;;;;;7.28;1.02;;;;;;;;;;5026909;28;20362;-70
2022/02/12 07:01:49;;;;;;;4.95;0.80;;;;;;;;;;5026143;28;20155;-71
2022/02/12 07:04:15;;;;;;;3.80;1.00;;;;;;;;;;5044269;28;20041;-70
2022/02/12 07:06:41;;;;;;;9.27;1.00;;;;;;;;;;5025517;28;20014;-71
2022/02/12 07:09:11;;;;;;;7.57;0.98;;;;;;;;;;5044629;28;20026;-70
2022/02/12 07:11:37;;;;;;;4.30;0.57;;;;;;;;;;5044704;28;20034;-70
2022/02/12 07:14:02;;;;;;;5.22;0.90;;;;;;;;;;5026313;28;20025;-71
2022/02/12 07:16:30;;;;;;;5.53;1.33;;;;;;;;;;5026303;28;20035;-70
2022/02/12 07:18:56;;;;;;;9.75;2.05;;;;;;;;;;5026689;28;20450;-70
2022/02/12 07:21:24;;;;;;;3.63;0.98;;;;;;;;;;5044171;28;20074;-71
2022/02/12 07:23:49;;;;;;;10.82;1.27;;;;;;;;;;5044048;28;20025;-71
2022/02/12 07:26:25;;;;;;;9.85;1.35;;;;;;;;;;5026588;28;20067;-71
2022/02/12 07:28:50;;;;;;;6.25;0.88;;;;;;;;;;5025735;28;20100;-71
2022/02/12 07:31:18;;;;;;;6.25;1.08;;;;;;;;;;5044142;28;20032;-70
2022/02/12 07:33:44;;;;;;;6.82;0.88;;;;;;;;;;5044005;28;20036;-70
2022/02/12 07:36:11;;;;;;;3.47;0.80;;;;;;;;;;5026058;28;20033;-70
2022/02/12 07:38:37;;;;;;;9.75;1.27;;;;;;;;;;5043331;28;20037;-71
2022/02/12 07:41:02;;;;;;;9.38;0.98;;;;;;;;;;5043865;28;20047;-71
2022/02/12 07:43:28;;;;;;;8.20;1.63;;;;;;;;;;5026216;28;20484;-70
2022/02/12 07:45:58;;;;;;;5.43;1.20;;;;;;;;;;5044250;28;20029;-71
2022/02/12 07:48:24;;;;;;;4.45;1.02;;;;;;;;;;5044181;28;20052;-71
2022/02/12 07:50:49;;;;;;;2.63;0.88;;;;;;;;;;5043922;28;20230;-70
2022/02/12 07:53:15;;;;;;;7.32;1.08;;;;;;;;;;5043733;28;20712;-70
2022/02/12 07:55:41;;;;;;;9.00;1.60;;;;;;;;;;5043843;28;20033;-70
2022/02/12 07:58:08;;;;;;;6.00;1.13;;;;;;;;;;5043819;28;20044;-71
2022/02/12 08:00:34;;;;;;;3.03;0.65;;;;;;;;;;5043850;28;20022;-70
2022/02/12 08:03:02;;;;;;;2.45;0.80;;;;;;;;;;5042304;28;20060;-70
2022/02/12 08:05:30;;;;;;;5.72;1.00;;;;;;;;;;5043668;28;20037;-70
2022/02/12 08:08:03;;;;;;;7.07;1.70;;;;;;;;;;5024770;28;20101;-70
2022/02/12 08:13:16;;;;;;;;;;;;;;;;;;5043924;28;20071;-71
2022/02/12 08:15:41;;;;;;;4.28;0.82;;;;;;;;;;5025169;28;19935;-70
2022/02/12 08:18:09;;;;;;;11.20;1.50;;;;;;;;;;5042502;28;20025;-70
2022/02/12 08:20:35;;;;;;;5.70;1.00;;;;;;;;;;5042232;28;20035;-71
2022/02/12 08:23:01;;;;;;;8.65;1.35;;;;;;;;;;5043228;28;20025;-70
2022/02/12 08:25:32;;;;;;;6.65;1.42;;;;;;;;;;5043127;28;20487;-70
2022/02/12 08:27:57;;;;;;;4.05;1.13;;;;;;;;;;5043256;28;20030;-71
2022/02/12 08:30:23;;;;;;;10.10;1.40;;;;;;;;;;5043151;28;20080;-71
2022/02/12 08:32:49;;;;;;;10.90;1.30;;;;;;;;;;5024702;28;20111;-70
2022/02/12 08:35:15;;;;;;;6.95;1.48;;;;;;;;;;5042455;28;20037;-70
2022/02/12 08:37:43;;;;;;;11.30;1.70;;;;;;;;;;5058335;28;20041;-70
2022/02/12 08:40:23;;;;;;;6.88;0.93;;;;;;;;;;5043158;28;20068;-70
2022/02/12 08:42:49;;;;;;;14.73;2.03;;;;;;;;;;5043208;28;20057;-70
2022/02/12 08:45:16;;;;;;;5.88;1.02;;;;;;;;;;5042759;28;20029;-70
2022/02/12 08:47:44;;;;;;;4.13;0.73;;;;;;;;;;5043004;28;20025;-70
2022/02/12 08:50:10;;;;;;;8.30;1.27;;;;;;;;;;5024690;28;20548;-70
2022/02/12 08:52:37;;;;;;;4.43;0.98;;;;;;;;;;5042955;28;20026;-69
2022/02/12 08:55:05;;;;;;;4.88;0.52;;;;;;;;;;5025021;28;20029;-70
2022/02/12 08:57:30;;;;;;;5.53;1.02;;;;;;;;;;5025074;28;20083;-70
2022/02/12 08:59:56;;;;;;;8.48;1.60;;;;;;;;;;5042996;28;20378;-70
2022/02/12 09:02:24;;;;;;;6.93;1.02;;;;;;;;;;5024756;28;20029;-70
2022/02/12 09:04:50;;;;;;;5.90;1.20;;;;;;;;;;5024844;28;20025;-70
2022/02/12 09:07:15;;;;;;;5.78;1.42;;;;;;;;;;5025232;28;20084;-70
2022/02/12 09:09:42;;;;;;;3.40;1.08;;;;;;;;;;5024755;28;20040;-70
2022/02/12 09:12:09;;;;;;;14.52;1.67;;;;;;;;;;5042811;28;20041;-70
2022/02/12 09:14:34;;;;;;;11.48;1.10;;;;;;;;;;5042564;28;20164;-70
2022/02/12 09:17:05;;;;;;;10.20;2.08;;;;;;;;;;5042640;28;20436;-70
2022/02/12 09:19:31;;;;;;;9.68;2.15;;;;;;;;;;5042470;28;20037;-70
2022/02/12 09:21:57;;;;;;;10.90;1.27;;;;;;;;;;5042667;28;20025;-70
2022/02/12 09:24:23;;;;;;;5.97;1.20;;;;;;;;;;5042812;28;20061;-70
2022/02/12 09:26:48;;;;;;;5.72;0.90;;;;;;;;;;5042773;28;20025;-70
2022/02/12 09:29:14;;;;;;;10.48;1.30;;;;;;;;;;5043318;28;20496;-71
2022/02/12 09:31:39;;;;;;;8.23;1.17;;;;;;;;;;5046465;28;20021;-70
2022/02/12 09:34:06;;;;;;;7.28;2.03;;;;;;;;;;5046360;28;20034;-69
2022/02/12 09:36:32;;;;;;;3.53;0.90;;;;;;;;;;5046326;28;20025;-70
2022/02/12 09:38:57;;;;;;;1.00;0.60;;;;;;;;;;5046020;28;20029;-69
2022/02/12 09:41:25;;;;;;;4.80;0.93;;;;;;;;;;5046389;28;20025;-71
2022/02/12 09:43:56;;;;;;;5.00;0.90;;;;;;;;;;5027784;28;20037;-70
2022/02/12 09:46:31;;;;;;;2.90;0.57;;;;;;;;;;5045770;28;20041;-71
2022/02/12 09:49:02;;;;;;;5.95;1.10;;;;;;;;;;5046044;28;20034;-70
2022/02/12 09:51:30;;;;;;;6.30;1.42;;;;;;;;;;5028070;28;20029;-70
2022/02/12 09:53:58;;;;;;;11.38;0.60;;;;;;;;;;5027597;28;20377;-69
2022/02/12 09:56:27;;;;;;;9.70;1.05;;;;;;;;;;5045688;28;20108;-71
2022/02/12 09:58:53;;;;;;;5.68;0.80;;;;;;;;;;5027986;28;20056;-71
2022/02/12 10:01:27;;;;;;;4.28;1.20;;;;;;;;;;5046107;28;20377;-70
2022/02/12 10:03:52;;;;;;;;;;;;;;;;;;5046075;28;20036;-70
2022/02/12 10:06:42;;;;;;;8.98;1.20;;;;;;;;;;5044563;28;20011;-70
2022/02/12 10:09:08;;;;;;;6.95;1.30;;;;;;;;;;5043960;28;20026;-70
2022/02/12 10:11:50;;;;;;;4.07;0.77;;;;;;;;;;5045202;28;20029;-69
2022/02/12 10:14:18;;;;;;;5.03;0.90;;;;;;;;;;5027176;28;20026;-70
2022/02/12 10:16:54;;;;;;;5.00;1.33;;;;;;;;;;5026684;28;20032;-71
2022/02/12 10:19:36;;;;;;;4.35;1.15;;;;;;;;;;5045050;28;20037;-70
2022/02/12 10:22:18;;;;;;;5.30;1.38;;;;;;;;;;5060518;28;20037;-70
2022/02/12 10:24:44;;;;;;;4.88;0.82;;;;;;;;;;5045572;28;20029;-69
2022/02/12 10:27:15;;;;;;;9.43;1.42;;;;;;;;;;5027406;28;20466;-70
2022/02/12 10:29:47;;;;;;;6.13;1.30;;;;;;;;;;5045002;28;20040;-70
2022/02/12 10:32:14;;;;;;;9.23;0.98;;;;;;;;;;5026446;28;20041;-70
2022/02/12 10:34:49;;;;;;;3.75;0.90;;;;;;;;;;5026636;28;20032;-69
2022/02/12 10:37:20;;;;;;;14.18;1.35;;;;;;;;;;5022929;28;20057;-70
2022/02/12 10:39:52;;;;;;;4.60;1.20;;;;;;;;;;5023600;28;20180;-70
2022/02/12 10:42:21;;;;;;;8.98;1.00;;;;;;;;;;5022433;28;20026;-70
2022/02/12 10:44:50;;;;;;;9.10;1.23;;;;;;;;;;5023586;28;20033;-71
2022/02/12 10:47:17;;;;;;;7.80;1.00;;;;;;;;;;5024322;28;20038;-70
2022/02/12 10:49:43;;;;;;;8.95;0.82;;;;;;;;;;5025194;28;20425;-70
2022/02/12 10:52:09;;;;;;;3.88;0.98;;;;;;;;;;5024109;28;20033;-70
2022/02/12 10:54:51;;;;;;;7.05;1.13;;;;;;;;;;5024436;28;20121;-69
2022/02/12 10:57:19;;;;;;;7.80;1.02;;;;;;;;;;5025527;28;20042;-70
2022/02/12 10:59:47;;;;;;;5.10;1.00;;;;;;;;;;5025427;28;20034;-70
2022/02/12 11:02:15;;;;;;;7.35;1.08;;;;;;;;;;5024274;28;20501;-70
2022/02/12 11:04:48;;;;;;;1.40;0.70;;;;;;;;;;5025071;28;20034;-70
2022/02/12 11:07:22;;;;;;;4.97;0.93;;;;;;;;;;5023036;28;20045;-71
2022/02/12 11:09:50;;;;;;;6.97;1.17;;;;;;;;;;5025135;28;20077;-70
2022/02/12 11:12:16;;;;;;;3.60;0.57;;;;;;;;;;5023749;28;20536;-70
2022/02/12 11:14:47;;;;;;;5.15;0.75;;;;;;;;;;5024583;28;20077;-70
2022/02/12 11:17:22;;;;;;;6.50;1.30;;;;;;;;;;5024030;28;20080;-70
2022/02/12 11:19:52;;;;;;;16.40;10.15;;;;;;;;;;5025746;28;20034;-70
2022/02/12 11:22:18;;;;;;;6.28;2.88;;;;;;;;;;5024794;28;20037;-70
2022/02/12 11:24:44;;;;;;;11.00;4.93;;;;;;;;;;5023879;28;20038;-70
2022/02/12 11:27:18;;;;;;;5.70;1.52;;;;;;;;;;5022409;28;20037;-70
2022/02/12 11:29:44;;;;;;;7.78;1.65;;;;;;;;;;5024592;28;20041;-70
2022/02/12 11:32:14;;;;;;;2.75;0.88;;;;;;;;;;5021394;28;20042;-71
2022/02/12 11:35:06;;;;;;;4.13;1.77;;;;;;;;;;5022522;28;20036;-71
2022/02/12 11:37:44;;;;;;;6.95;1.27;;;;;;;;;;5014556;28;20061;-70
2022/02/12 11:40:21;;;;;;;12.55;1.90;;;;;;;;;;5024463;28;20034;-70
2022/02/12 11:43:06;;;;;;;5.63;3.70;;;;;;;;;;5022996;28;20030;-70
2022/02/12 11:45:47;;;;;;;10.70;2.75;;;;;;;;;;5023723;28;20025;-70
2022/02/12 11:48:19;;;;;;;8.35;3.95;;;;;;;;;;5023806;28;20064;-71
2022/02/12 11:50:45;;;;;;;15.15;8.65;;;;;;;;;;5023828;28;20030;-70
2022/02/12 11:53:51;;;;;;;17.25;8.75;;;;;;;;;;5021265;28;20108;-71
2022/02/12 11:56:23;;;;;;;49.78;25.48;;;;;;;;;;5022522;28;20490;-70
2022/02/12 11:58:53;;;;;;;28.02;17.08;;;;;;;;;;5023871;28;20033;-70
2022/02/12 12:01:21;;;;;;;19.75;9.20;;;;;;;;;;5023619;28;20034;-70
2022/02/12 12:04:02;;;;;;;6.47;4.47;;;;;;;;;;5023393;28;20022;-70
2022/02/12 12:06:27;;;;;;;8.98;3.55;;;;;;;;;;5022932;28;20418;-70
2022/02/12 12:09:16;;;;;;;5.70;3.58;;;;;;;;;;5023652;28;20026;-70
2022/02/12 12:12:10;;;;;;;5.22;3.42;;;;;;;;;;5023698;28;20052;-70
2022/02/12 12:14:36;;;;;;;1.90;0.95;;;;;;;;;;5023517;28;20057;-70
2022/02/12 12:17:08;;;;;;;1.30;0.80;;;;;;;;;;5023746;28;20061;-69
2022/02/12 12:19:38;;;;;;;3.20;1.50;;;;;;;;;;5023536;28;20106;-69
2022/02/12 12:22:06;;;;;;;2.97;1.10;;;;;;;;;;5022341;28;20436;-69
2022/02/12 12:24:32;;;;;;;10.07;1.98;;;;;;;;;;5023691;28;20022;-69
2022/02/12 12:26:58;;;;;;;9.95;3.70;;;;;;;;;;5023470;28;20030;-68
2022/02/12 12:32:13;;;;;;;5.30;1.33;;;;;;;;;;5022923;28;20044;-68
2022/02/12 12:35:03;;;;;;;3.75;1.23;;;;;;;;;;5023232;28;20036;-68
2022/02/12 12:37:32;;;;;;;2.38;1.15;;;;;;;;;;5033403;28;20041;-68
2022/02/12 12:40:03;;;;;;;5.53;1.23;;;;;;;;;;5043066;28;20029;-68
2022/02/12 12:42:30;;;;;;;11.85;7.10;;;;;;;;;;5042646;28;20032;-69
2022/02/12 12:45:06;;;;;;;6.35;1.27;;;;;;;;;;5043011;28;20037;-68
2022/02/12 12:47:34;;;;;;;5.32;1.77;;;;;;;;;;5043185;28;20258;-69
2022/02/12 12:50:07;;;;;;;5.18;2.58;;;;;;;;;;5042986;28;20084;-68
2022/02/12 12:52:33;;;;;;;4.55;1.30;;;;;;;;;;5042924;28;20039;-68
2022/02/12 12:55:07;;;;;;;6.43;1.38;;;;;;;;;;5025114;28;20109;-69
2022/02/12 12:57:39;;;;;;;5.60;1.40;;;;;;;;;;5043009;28;20044;-68
2022/02/12 13:00:12;;;;;;;6.20;1.63;;;;;;;;;;5042804;28;20037;-69
2022/02/12 13:02:50;;;;;;;6.53;1.80;;;;;;;;;;5042860;28;20052;-69
2022/02/12 13:05:42;;;;;;;7.13;0.93;;;;;;;;;;5027426;28;20025;-69
2022/02/12 13:08:10;;;;;;;12.23;4.05;;;;;;;;;;5043048;28;20041;-69
2022/02/12 13:10:40;;;;;;;6.80;2.38;;;;;;;;;;5028626;28;20040;-69
2022/02/12 13:13:20;;;;;;;8.15;4.68;;;;;;;;;;5046135;28;20175;-69
2022/02/12 13:15:51;;;;;;;13.02;6.03;;;;;;;;;;5046237;28;20064;-69
2022/02/12 13:18:17;;;;;;;8.77;4.07;;;;;;;;;;5047017;28;20026;-69
2022/02/12 13:20:44;;;;;;;15.95;7.88;;;;;;;;;;5046555;28;20029;-69
2022/02/12 13:23:17;;;;;;;14.48;6.43;;;;;;;;;;5028739;28;20044;-68
2022/02/12 13:25:44;;;;;;;4.87;2.00;;;;;;;;;;5028564;28;20041;-69
2022/02/12 13:28:13;;;;;;;6.43;2.95;;;;;;;;;;5029077;28;20056;-68
2022/02/12 13:30:38;;;;;;;5.13;2.25;;;;;;;;;;5028635;28;20040;-69
2022/02/12 13:33:06;;;;;;;10.23;3.28;;;;;;;;;;5046594;28;20029;-68
2022/02/12 13:35:39;;;;;;;8.30;3.78;;;;;;;;;;5028835;28;20040;-69
2022/02/12 13:38:06;;;;;;;7.70;2.22;;;;;;;;;;5046518;28;20054;-69
2022/02/12 13:40:36;;;;;;;12.15;2.38;;;;;;;;;;5046183;28;20135;-68
2022/02/12 13:43:16;;;;;;;11.27;3.55;;;;;;;;;;5028675;28;20049;-68
2022/02/12 13:45:47;;;;;;;5.53;2.38;;;;;;;;;;5046300;28;20038;-68
2022/02/12 13:48:16;;;;;;;8.00;3.00;;;;;;;;;;5046383;28;20550;-68
2022/02/12 13:50:43;;;;;;;10.30;2.45;;;;;;;;;;5028286;28;20033;-70
2022/02/12 13:53:26;;;;;;;10.77;2.78;;;;;;;;;;5028343;28;20067;-69
2022/02/12 13:56:00;;;;;;;4.68;2.05;;;;;;;;;;5028323;28;20025;-69
2022/02/12 13:58:31;;;;;;;6.25;2.30;;;;;;;;;;5046446;28;20048;-69
2022/02/12 14:00:57;;;;;;;4.75;2.17;;;;;;;;;;5044225;28;20056;-68
2022/02/12 14:03:38;;;;;;;4.95;2.22;;;;;;;;;;5044749;28;20436;-71
2022/02/12 14:06:08;;;;;;;8.45;2.55;;;;;;;;;;5045742;28;20033;-70
2022/02/12 14:08:38;;;;;;;7.45;2.08;;;;;;;;;;5045810;28;20033;-70
2022/02/12 14:11:05;;;;;;;2.72;1.48;;;;;;;;;;5045874;28;20048;-70
2022/02/12 14:13:31;;;;;;;5.75;2.38;;;;;;;;;;5027818;28;20029;-70
2022/02/12 14:15:59;;;;;;;9.70;2.67;;;;;;;;;;5059865;28;20493;-70
2022/02/12 14:18:25;;;;;;;5.90;2.10;;;;;;;;;;5045628;28;20065;-70
2022/02/12 14:20:54;;;;;;;9.95;3.35;;;;;;;;;;5045413;28;20075;-70
2022/02/12 14:23:20;;;;;;;5.20;1.60;;;;;;;;;;5027738;28;20229;-70
2022/02/12 14:25:49;;;;;;;9.93;3.78;;;;;;;;;;5045269;28;20026;-70
2022/02/12 14:28:17;;;;;;;13.00;2.53;;;;;;;;;;5045658;28;20033;-70
2022/02/12 14:30:43;;;;;;;7.13;2.67;;;;;;;;;;5045015;28;20033;-69
2022/02/12 14:33:09;;;;;;;5.45;1.98;;;;;;;;;;5045240;28;20030;-71
2022/02/12 14:35:35;;;;;;;2.35;1.05;;;;;;;;;;5045283;28;20037;-70
2022/02/12 14:38:00;;;;;;;4.40;2.17;;;;;;;;;;5044437;28;20076;-69
2022/02/12 14:40:27;;;;;;;4.43;0.93;;;;;;;;;;5045029;28;20326;-70
2022/02/12 14:42:56;;;;;;;2.47;0.95;;;;;;;;;;5044987;28;20021;-70
2022/02/12 14:45:22;;;;;;;2.50;0.55;;;;;;;;;;5044911;28;20035;-69
2022/02/12 14:47:48;;;;;;;2.97;0.50;;;;;;;;;;5043778;28;20065;-68
2022/02/12 14:50:15;;;;;;;2.95;0.73;;;;;;;;;;5025830;28;20030;-69
2022/02/12 14:52:41;;;;;;;3.95;0.43;;;;;;;;;;5044927;28;20032;-69
2022/02/12 14:55:07;;;;;;;2.95;0.63;;;;;;;;;;5026533;28;20097;-69
2022/02/12 14:57:34;;;;;;;2.17;0.80;;;;;;;;;;5044596;28;20069;-69
2022/02/12 15:00:00;;;;;;;2.72;0.88;;;;;;;;;;5044433;28;20040;-68
2022/02/12 15:02:26;;;;;;;6.60;1.10;;;;;;;;;;5044748;28;20571;-68